Terminal Aerodrome Forecast
Issued by NWS

Home | Current Version | Previous Version | Text Only | Print | Product List | Glossary On
Versions: 1 2 3 4 5 6 7 8 9 10 11 12 13 14 15 16 17 18 19 20 21
654
FTUS43 KDVN 020802 AAD
TAFCID
TAF AMD
KCID 020802Z 0208/0306 27009KT P6SM VCSH FEW015 SCT025 OVC035
      TEMPO 0208/0209 OVC023
     FM021100 29008KT P6SM OVC018
     FM021800 30010KT P6SM OVC025=

USA.gov is the U.S. government's official web portal to all federal, state and local government web resources and services.